Pine Valley, California
Current Conditions -  °F | °C
As of 7:53 PM on Friday 24 Oct 2014 (Local Time) from KRNM Reporting Station
Clear Clear  
Wind Chill: 67°   Ceiling: Unl
Heat Index: 67°   Visibility: 10mi
Dew Point: 32°   Wind: 0mph
Humidity: 27%   Direction: NA
Pressure: 30.01"   Gusts: NA
Location:  32.86°N, 116.5°W
Report Text: KRNM 250253Z 00000KT 10SM CLR 19/00 A3001 RMK AO2 SLP154 T01940000 53012
Loading
Personal Weather Stations






























Interactive Weather Map New forecast layout! Learn more

10-Day Weather Forecast

Advertisements
Track Severe Weather on mobile